Terminal Aerodrome Forecast
Issued by NWS

Home | Current Version | Previous Version | Text Only | Print | Product List | Glossary On
Versions: 1 2 3 4 5 6 7 8 9 10 11 12 13 14
119
FTUS41 KCAR 312331
TAFBHB
TAF
KBHB 312331Z 0100/0124 21006KT P6SM SCT040
     FM010300 21004KT P6SM BKN028
     FM010430 VRB03KT 5SM BR BKN015
     FM010700 VRB03KT 2SM BR BKN008
     FM011000 VRB03KT 5SM BR BKN012
     FM011200 00000KT P6SM BKN018
     FM011400 00000KT P6SM BKN025
     FM011600 00000KT P6SM BKN035=

USA.gov is the U.S. government's official web portal to all federal, state and local government web resources and services.